createdAt,value
2018-02-24T00:02:26.882Z,91.60
2018-02-24T00:04:53.117Z,91.60
2018-02-24T00:07:19.338Z,91.60
2018-02-24T00:09:46.319Z,91.60
2018-02-24T00:12:12.561Z,91.50
2018-02-24T00:14:38.835Z,91.60
2018-02-24T00:17:05.045Z,91.60
2018-02-24T00:19:31.237Z,91.70
2018-02-24T00:21:57.502Z,91.70
2018-02-24T00:24:24.448Z,91.60
2018-02-24T00:26:50.695Z,91.60
2018-02-24T00:29:17.730Z,91.40
2018-02-24T00:31:43.970Z,91.60
2018-02-24T00:34:10.199Z,91.50
2018-02-24T00:36:36.420Z,91.50
2018-02-24T00:39:02.699Z,91.50
2018-02-24T00:41:28.907Z,91.30
2018-02-24T00:43:55.142Z,91.30
2018-02-24T00:46:21.362Z,91.40
2018-02-24T00:48:47.637Z,91.40
2018-02-24T00:51:13.863Z,91.30
2018-02-24T00:53:40.114Z,91.20
2018-02-24T00:56:06.407Z,91.10
2018-02-24T00:58:33.401Z,91.00
2018-02-24T01:00:59.647Z,91.00
2018-02-24T01:03:25.887Z,90.90
2018-02-24T01:05:52.418Z,90.80
2018-02-24T01:08:18.619Z,90.90
2018-02-24T01:10:44.827Z,90.70
2018-02-24T01:13:11.063Z,90.60
2018-02-24T01:15:37.293Z,90.50
2018-02-24T01:18:03.537Z,90.60
2018-02-24T01:20:29.781Z,90.80
2018-02-24T01:22:56.049Z,90.70
2018-02-24T01:25:22.275Z,90.70
2018-02-24T01:27:48.519Z,90.80
2018-02-24T01:30:14.752Z,90.80
2018-02-24T01:32:40.995Z,90.80
2018-02-24T01:35:08.021Z,90.80
2018-02-24T01:37:34.226Z,90.80
2018-02-24T01:40:01.200Z,90.80
2018-02-24T01:42:27.421Z,90.70
2018-02-24T01:44:53.638Z,90.80
2018-02-24T01:47:19.858Z,90.80
2018-02-24T01:49:46.448Z,90.80
2018-02-24T01:52:12.671Z,90.80
2018-02-24T01:54:38.875Z,90.90
2018-02-24T01:57:05.109Z,91.00
2018-02-24T01:59:31.330Z,91.00
2018-02-24T02:01:57.594Z,91.00
2018-02-24T02:04:23.838Z,91.00
2018-02-24T02:06:50.076Z,90.90
2018-02-24T02:09:16.291Z,90.80
2018-02-24T02:11:43.247Z,90.60
2018-02-24T02:14:10.212Z,90.60
2018-02-24T02:16:36.434Z,90.60
2018-02-24T02:19:03.474Z,90.50
2018-02-24T02:21:29.704Z,90.50
2018-02-24T02:23:55.932Z,90.50
2018-02-24T02:26:22.139Z,90.50
2018-02-24T02:28:48.370Z,90.60
2018-02-24T02:31:15.347Z,90.60
2018-02-24T02:33:41.579Z,90.60
2018-02-24T02:36:07.816Z,90.60
2018-02-24T02:38:34.027Z,90.50
2018-02-24T02:41:01.006Z,90.60
2018-02-24T02:43:27.242Z,90.50
2018-02-24T02:45:54.206Z,90.60
2018-02-24T02:48:20.469Z,90.60
2018-02-24T02:50:46.690Z,90.80
2018-02-24T02:53:12.925Z,90.80
2018-02-24T02:55:39.156Z,90.70
2018-02-24T02:58:06.133Z,90.50
2018-02-24T03:00:32.363Z,90.40
2018-02-24T03:02:58.576Z,90.40
2018-02-24T03:05:24.808Z,90.50
2018-02-24T03:07:51.012Z,90.50
2018-02-24T03:10:17.247Z,90.50
2018-02-24T03:12:43.509Z,90.50
2018-02-24T03:15:09.743Z,90.50
2018-02-24T03:17:35.983Z,90.50
2018-02-24T03:20:02.219Z,90.50
2018-02-24T03:22:28.431Z,90.60
2018-02-24T03:24:54.674Z,90.50
2018-02-24T03:27:20.907Z,90.50
2018-02-24T03:29:47.137Z,90.50
2018-02-24T03:32:14.113Z,90.30
2018-02-24T03:34:40.347Z,90.40
2018-02-24T03:37:06.590Z,90.40
2018-02-24T03:39:32.810Z,90.40
2018-02-24T03:41:59.795Z,90.40
2018-02-24T03:44:26.081Z,90.40
2018-02-24T03:46:52.306Z,90.50
2018-02-24T03:49:18.532Z,90.70
2018-02-24T03:51:44.751Z,90.80
2018-02-24T03:54:10.991Z,91.20
2018-02-24T03:56:37.237Z,91.00
2018-02-24T03:59:03.448Z,91.00
2018-02-24T04:01:30.407Z,91.30
2018-02-24T04:03:57.358Z,91.10
2018-02-24T04:06:24.354Z,91.10
2018-02-24T04:08:50.598Z,91.10
2018-02-24T04:11:16.811Z,91.10
2018-02-24T04:13:43.785Z,91.10
2018-02-24T04:16:09.988Z,91.10
2018-02-24T04:18:36.483Z,91.10
2018-02-24T04:21:02.705Z,91.00
2018-02-24T04:23:28.912Z,91.10
2018-02-24T04:25:55.133Z,91.10
2018-02-24T04:28:21.348Z,91.10
2018-02-24T04:30:54.446Z,91.00
2018-02-24T04:33:20.678Z,90.90
2018-02-24T04:35:46.940Z,90.90
2018-02-24T04:38:13.155Z,90.80
2018-02-24T04:40:39.360Z,90.80
2018-02-24T04:43:05.606Z,90.10
2018-02-24T04:45:32.602Z,89.50
2018-02-24T04:47:58.821Z,89.40
2018-02-24T04:50:25.778Z,89.70
2018-02-24T04:52:52.746Z,89.70
2018-02-24T04:55:18.960Z,89.60
2018-02-24T04:57:45.932Z,89.00
2018-02-24T05:00:12.896Z,88.70
2018-02-24T05:02:39.856Z,88.50
2018-02-24T05:05:06.071Z,88.50
2018-02-24T05:07:32.301Z,88.60
2018-02-24T05:09:58.531Z,88.60
2018-02-24T05:12:24.745Z,88.50
2018-02-24T05:14:51.001Z,88.50
2018-02-24T05:17:17.210Z,88.60
2018-02-24T05:19:43.425Z,88.70
2018-02-24T05:22:10.379Z,88.80
2018-02-24T05:24:37.341Z,88.80
2018-02-24T05:27:04.322Z,88.90
2018-02-24T05:29:30.541Z,88.80
2018-02-24T05:31:57.062Z,89.00
2018-02-24T05:34:23.298Z,89.40
2018-02-24T05:36:49.519Z,89.70
2018-02-24T05:39:15.745Z,89.90
2018-02-24T05:41:41.987Z,89.90
2018-02-24T05:44:08.229Z,90.00
2018-02-24T05:46:34.481Z,90.20
2018-02-24T05:49:00.716Z,90.20
2018-02-24T05:51:26.945Z,90.20
2018-02-24T05:53:53.325Z,90.20
2018-02-24T05:56:19.573Z,90.30
2018-02-24T05:58:45.785Z,90.10
2018-02-24T06:01:12.037Z,89.70
2018-02-24T06:03:38.240Z,89.70
2018-02-24T06:06:04.488Z,89.70
2018-02-24T06:08:30.700Z,89.80
2018-02-24T06:10:56.923Z,90.00
2018-02-24T06:13:23.906Z,94.50
2018-02-24T06:15:50.138Z,94.10
2018-02-24T06:18:16.376Z,92.80
2018-02-24T06:20:43.344Z,89.10
2018-02-24T06:23:09.587Z,89.10
2018-02-24T06:25:35.810Z,86.30
2018-02-24T06:28:02.789Z,83.70
2018-02-24T06:30:29.054Z,83.60
2018-02-24T06:32:55.304Z,81.80
2018-02-24T06:35:21.560Z,81.80
2018-02-24T06:37:47.790Z,82.80
2018-02-24T06:40:14.074Z,83.40
2018-02-24T06:42:41.054Z,84.50
2018-02-24T06:45:07.299Z,84.50
2018-02-24T06:47:33.538Z,85.00
2018-02-24T06:49:59.754Z,85.30
2018-02-24T06:52:26.727Z,85.00
2018-02-24T06:54:52.983Z,84.90
2018-02-24T06:57:19.228Z,85.00
2018-02-24T06:59:45.446Z,85.60
2018-02-24T07:02:11.662Z,86.10
2018-02-24T07:04:38.648Z,86.70
2018-02-24T07:07:04.858Z,86.70
2018-02-24T07:09:31.837Z,88.20
2018-02-24T07:11:58.052Z,88.20
2018-02-24T07:14:25.042Z,88.80
2018-02-24T07:16:51.266Z,88.70
2018-02-24T07:19:18.248Z,86.10
2018-02-24T07:21:44.473Z,86.00
2018-02-24T07:24:11.102Z,85.70
2018-02-24T07:26:37.338Z,85.80
2018-02-24T07:29:03.567Z,85.70
2018-02-24T07:31:29.817Z,86.10
2018-02-24T07:33:56.079Z,86.30
2018-02-24T07:36:23.069Z,87.10
2018-02-24T07:38:49.293Z,87.10
2018-02-24T07:41:15.530Z,90.30
2018-02-24T07:43:41.823Z,92.20
2018-02-24T07:46:08.036Z,92.70
2018-02-24T07:48:34.247Z,91.40
2018-02-24T07:51:00.443Z,90.10
2018-02-24T07:53:26.665Z,86.50
2018-02-24T07:55:52.891Z,85.70
2018-02-24T07:58:19.113Z,85.00
2018-02-24T08:00:45.347Z,84.50
2018-02-24T08:03:11.565Z,84.30
2018-02-24T08:05:38.531Z,84.60
2018-02-24T08:08:04.741Z,84.60
2018-02-24T08:10:30.984Z,84.30
2018-02-24T08:12:57.210Z,84.40
2018-02-24T08:15:24.194Z,85.00
2018-02-24T08:17:50.413Z,84.90
2018-02-24T08:20:16.653Z,85.10
2018-02-24T08:22:42.881Z,85.10
2018-02-24T08:25:09.101Z,85.10
2018-02-24T08:27:35.348Z,84.90
2018-02-24T08:30:01.559Z,84.90
2018-02-24T08:32:27.814Z,85.00
2018-02-24T08:34:54.047Z,85.30
2018-02-24T08:37:20.293Z,85.40
2018-02-24T08:39:46.510Z,85.20
2018-02-24T08:42:13.474Z,85.10
2018-02-24T08:44:40.534Z,85.00
2018-02-24T08:47:07.021Z,85.00
2018-02-24T08:49:34.029Z,84.60
2018-02-24T08:52:00.982Z,84.60
2018-02-24T08:54:27.966Z,84.50
2018-02-24T08:56:54.360Z,84.40
2018-02-24T08:59:20.804Z,84.10
2018-02-24T09:01:47.024Z,83.70
2018-02-24T09:04:13.246Z,83.30
2018-02-24T09:06:39.497Z,83.10
2018-02-24T09:09:05.746Z,83.10
2018-02-24T09:11:31.970Z,83.30
2018-02-24T09:13:58.202Z,82.40
2018-02-24T09:16:24.429Z,81.10
2018-02-24T09:18:51.340Z,79.90
2018-02-24T09:21:17.554Z,79.80
2018-02-24T09:23:43.794Z,80.20
2018-02-24T09:26:10.020Z,80.20
2018-02-24T09:28:36.276Z,80.20
2018-02-24T09:31:02.485Z,79.90
2018-02-24T09:33:29.478Z,78.50
2018-02-24T09:35:56.084Z,78.40
2018-02-24T09:38:23.069Z,78.30
2018-02-24T09:40:49.321Z,78.30
2018-02-24T09:43:15.547Z,78.00
2018-02-24T09:45:42.320Z,77.20
2018-02-24T09:48:08.540Z,76.90
2018-02-24T09:50:34.785Z,76.60
2018-02-24T09:53:01.020Z,76.10
2018-02-24T09:55:27.263Z,75.90
2018-02-24T09:57:53.503Z,75.30
2018-02-24T10:00:19.761Z,73.50
2018-02-24T10:02:46.171Z,72.90
2018-02-24T10:05:13.132Z,73.80
2018-02-24T10:07:39.385Z,73.70
2018-02-24T10:10:05.625Z,72.50
2018-02-24T10:12:32.757Z,71.40
2018-02-24T10:14:59.222Z,71.30
2018-02-24T10:17:26.151Z,71.10
2018-02-24T10:19:52.909Z,71.10
2018-02-24T10:22:19.145Z,70.10
2018-02-24T10:24:45.379Z,69.90
2018-02-24T10:27:11.599Z,69.70
2018-02-24T10:29:37.838Z,68.90
2018-02-24T10:32:04.066Z,66.50
2018-02-24T10:34:30.308Z,66.40
2018-02-24T10:36:56.617Z,65.70
2018-02-24T10:39:22.851Z,64.90
2018-02-24T10:41:49.086Z,64.30
2018-02-24T10:44:15.372Z,64.70
2018-02-24T10:46:41.616Z,64.90
2018-02-24T10:49:13.207Z,63.60
2018-02-24T10:51:39.424Z,62.80
2018-02-24T10:54:05.651Z,62.40
2018-02-24T10:56:31.887Z,62.60
2018-02-24T10:58:58.127Z,60.80
2018-02-24T11:01:24.373Z,60.00
2018-02-24T11:03:50.603Z,60.40
2018-02-24T11:06:16.838Z,59.60
2018-02-24T11:08:43.084Z,59.50
2018-02-24T11:11:09.326Z,58.50
2018-02-24T11:13:35.568Z,59.30
2018-02-24T11:16:01.791Z,59.40
2018-02-24T11:18:28.046Z,59.90
2018-02-24T11:20:54.296Z,60.40
2018-02-24T11:23:20.526Z,60.00
2018-02-24T11:25:46.763Z,58.80
2018-02-24T11:28:12.988Z,58.50
2018-02-24T11:30:39.240Z,57.50
2018-02-24T11:33:05.456Z,57.50
2018-02-24T11:35:32.400Z,56.30
2018-02-24T11:37:58.623Z,56.30
2018-02-24T11:40:24.852Z,56.90
2018-02-24T11:42:51.128Z,56.10
2018-02-24T11:45:18.104Z,55.50
2018-02-24T11:47:44.376Z,55.50
2018-02-24T11:50:10.667Z,56.00
2018-02-24T11:52:36.786Z,55.60
2018-02-24T11:55:03.038Z,54.90
2018-02-24T11:57:29.276Z,54.00
2018-02-24T11:59:55.524Z,53.20
2018-02-24T12:02:21.792Z,53.20
2018-02-24T12:04:48.042Z,52.80
2018-02-24T12:07:14.279Z,51.60
2018-02-24T12:09:40.541Z,52.20
2018-02-24T12:12:07.105Z,51.80
2018-02-24T12:14:34.060Z,49.80
2018-02-24T12:17:00.299Z,49.70
2018-02-24T12:19:26.535Z,48.90
2018-02-24T12:21:52.747Z,48.50
2018-02-24T12:24:18.980Z,48.00
2018-02-24T12:26:45.209Z,47.70
2018-02-24T12:29:12.207Z,47.20
2018-02-24T12:31:38.425Z,47.20
2018-02-24T12:34:05.601Z,47.40
2018-02-24T12:36:31.821Z,47.60
2018-02-24T12:38:58.085Z,47.80
2018-02-24T12:41:24.331Z,47.80
2018-02-24T12:43:50.547Z,46.60
2018-02-24T12:46:16.824Z,46.70
2018-02-24T12:48:43.055Z,46.80
2018-02-24T12:51:09.295Z,47.10
2018-02-24T12:53:35.567Z,46.10
2018-02-24T12:56:01.813Z,46.90
2018-02-24T12:58:28.067Z,48.50
2018-02-24T13:00:55.067Z,47.80
2018-02-24T13:03:21.327Z,47.80
2018-02-24T13:05:47.547Z,47.40
2018-02-24T13:08:13.820Z,46.10
2018-02-24T13:10:40.053Z,45.20
2018-02-24T13:13:06.332Z,43.80
2018-02-24T13:15:33.310Z,43.50
2018-02-24T13:17:59.553Z,43.50
2018-02-24T13:20:25.788Z,44.00
2018-02-24T13:22:52.045Z,44.80
2018-02-24T13:25:18.340Z,44.40
2018-02-24T13:27:44.528Z,44.60
2018-02-24T13:30:10.759Z,46.00
2018-02-24T13:32:37.048Z,45.70
2018-02-24T13:35:03.321Z,45.80
2018-02-24T13:37:29.620Z,45.10
2018-02-24T13:39:56.619Z,46.70
2018-02-24T13:42:23.593Z,47.10
2018-02-24T13:44:49.879Z,47.10
2018-02-24T13:47:16.129Z,46.40
2018-02-24T13:49:42.415Z,46.60
2018-02-24T13:52:09.397Z,46.30
2018-02-24T13:54:35.626Z,46.30
2018-02-24T13:57:01.859Z,46.50
2018-02-24T13:59:28.101Z,46.80
2018-02-24T14:01:54.377Z,47.10
2018-02-24T14:04:21.448Z,45.30
2018-02-24T14:06:47.668Z,45.30
2018-02-24T14:09:13.921Z,45.50
2018-02-24T14:11:40.130Z,46.10
2018-02-24T14:14:06.388Z,46.30
2018-02-24T14:16:32.634Z,46.20
2018-02-24T14:18:58.872Z,46.10
2018-02-24T14:21:25.112Z,45.30
2018-02-24T14:23:51.322Z,45.20
2018-02-24T14:26:17.576Z,44.60
2018-02-24T14:28:43.818Z,44.50
2018-02-24T14:31:10.052Z,44.70
2018-02-24T14:33:36.290Z,44.90
2018-02-24T14:36:02.524Z,44.70
2018-02-24T14:38:28.794Z,44.80
2018-02-24T14:40:55.052Z,44.90
2018-02-24T14:43:22.061Z,44.40
2018-02-24T14:45:48.280Z,44.20
2018-02-24T14:48:14.528Z,44.40
2018-02-24T14:50:41.502Z,44.40
2018-02-24T14:53:07.716Z,44.40
2018-02-24T14:55:34.732Z,44.90
2018-02-24T14:58:01.168Z,45.50
2018-02-24T15:00:27.421Z,45.00
2018-02-24T15:02:53.672Z,45.10
2018-02-24T15:05:19.879Z,45.00
2018-02-24T15:07:46.203Z,44.50
2018-02-24T15:10:13.176Z,44.40
2018-02-24T15:12:39.411Z,44.40
2018-02-24T15:15:05.701Z,45.00
2018-02-24T15:17:31.961Z,44.40
2018-02-24T15:19:58.261Z,44.40
2018-02-24T15:22:24.485Z,44.80
2018-02-24T15:24:50.751Z,44.30
2018-02-24T15:27:16.993Z,44.10
2018-02-24T15:29:43.239Z,44.70
2018-02-24T15:32:09.503Z,45.10
2018-02-24T15:34:35.757Z,45.40
2018-02-24T15:37:02.783Z,46.80
2018-02-24T15:39:29.003Z,46.80
2018-02-24T15:41:55.319Z,47.50
2018-02-24T15:44:21.565Z,47.70
2018-02-24T15:46:47.827Z,47.80
2018-02-24T15:49:14.065Z,48.50
2018-02-24T15:51:40.571Z,48.90
2018-02-24T15:54:07.528Z,49.60
2018-02-24T15:56:34.498Z,49.90
2018-02-24T15:59:00.756Z,49.90
2018-02-24T16:01:26.982Z,50.50
2018-02-24T16:03:53.228Z,51.10
2018-02-24T16:06:19.480Z,52.10
2018-02-24T16:08:45.768Z,52.80
2018-02-24T16:11:11.995Z,53.80
2018-02-24T16:13:38.253Z,54.50
2018-02-24T16:16:04.542Z,55.20
2018-02-24T16:18:30.770Z,55.70
2018-02-24T16:20:57.011Z,56.10
2018-02-24T16:23:23.364Z,56.60
2018-02-24T16:25:49.619Z,57.00
2018-02-24T16:28:15.916Z,57.40
2018-02-24T16:30:42.928Z,59.10
2018-02-24T16:33:10.820Z,58.80
2018-02-24T16:35:37.051Z,58.80
2018-02-24T16:38:03.294Z,59.20
2018-02-24T16:40:29.532Z,59.70
2018-02-24T16:42:55.772Z,60.00
2018-02-24T16:45:22.033Z,60.40
2018-02-24T16:47:48.298Z,60.60
2018-02-24T16:50:15.263Z,61.40
2018-02-24T16:52:42.280Z,61.60
2018-02-24T16:55:08.525Z,61.60
2018-02-24T16:57:34.782Z,61.90
2018-02-24T17:00:01.811Z,62.60
2018-02-24T17:02:28.046Z,62.60
2018-02-24T17:04:54.281Z,63.00
2018-02-24T17:07:20.564Z,63.40
2018-02-24T17:09:46.788Z,63.80
2018-02-24T17:12:13.047Z,64.00
2018-02-24T17:14:40.029Z,63.70
2018-02-24T17:17:06.264Z,63.70
2018-02-24T17:19:33.225Z,63.20
2018-02-24T17:21:59.495Z,63.20
2018-02-24T17:24:25.725Z,63.00
2018-02-24T17:26:51.963Z,62.80
2018-02-24T17:29:18.242Z,62.60
2018-02-24T17:31:44.477Z,62.60
2018-02-24T17:34:10.726Z,62.70
2018-02-24T17:36:36.982Z,62.50
2018-02-24T17:39:03.268Z,62.60
2018-02-24T17:41:29.491Z,62.70
2018-02-24T17:43:55.764Z,62.70
2018-02-24T17:46:21.987Z,62.40
2018-02-24T17:48:48.203Z,61.90
2018-02-24T17:51:15.286Z,61.90
2018-02-24T17:53:41.501Z,61.90
2018-02-24T17:56:08.520Z,62.40
2018-02-24T17:58:34.763Z,62.30
2018-02-24T18:01:01.071Z,62.20
2018-02-24T18:03:27.338Z,63.50
2018-02-24T18:05:53.570Z,64.50
2018-02-24T18:08:19.813Z,63.30
2018-02-24T18:10:46.024Z,62.80
2018-02-24T18:13:12.277Z,61.70
2018-02-24T18:15:38.519Z,60.90
2018-02-24T18:18:04.813Z,60.50
2018-02-24T18:20:31.059Z,59.90
2018-02-24T18:22:58.062Z,60.80
2018-02-24T18:25:24.312Z,60.60
2018-02-24T18:27:50.579Z,60.70
2018-02-24T18:30:16.801Z,60.70
2018-02-24T18:32:43.066Z,60.80
2018-02-24T18:35:09.309Z,60.70
2018-02-24T18:37:35.568Z,60.60
2018-02-24T18:40:02.598Z,59.80
2018-02-24T18:42:28.834Z,59.80
2018-02-24T18:44:55.106Z,59.90
2018-02-24T18:47:22.136Z,60.30
2018-02-24T18:49:48.388Z,60.20
2018-02-24T18:52:14.649Z,59.60
2018-02-24T18:54:41.728Z,60.00
2018-02-24T18:57:07.962Z,60.00
2018-02-24T18:59:34.294Z,60.10
2018-02-24T19:02:01.324Z,60.10
2018-02-24T19:04:27.610Z,60.10
2018-02-24T19:06:53.910Z,60.20
2018-02-24T19:09:20.205Z,60.40
2018-02-24T19:11:46.517Z,60.50
2018-02-24T19:14:13.512Z,60.70
2018-02-24T19:16:40.072Z,60.70
2018-02-24T19:19:06.338Z,60.80
2018-02-24T19:21:32.634Z,60.70
2018-02-24T19:23:58.932Z,60.60
2018-02-24T19:26:25.237Z,60.90
2018-02-24T19:28:51.508Z,61.20
2018-02-24T19:31:17.891Z,61.20
2018-02-24T19:33:44.168Z,60.90
2018-02-24T19:36:10.416Z,60.80
2018-02-24T19:38:36.652Z,60.80
2018-02-24T19:41:02.935Z,60.90
2018-02-24T19:43:29.177Z,61.20
2018-02-24T19:45:56.533Z,61.30
2018-02-24T19:48:22.775Z,61.30
2018-02-24T19:50:49.020Z,61.30
2018-02-24T19:53:15.283Z,61.00
2018-02-24T19:55:42.324Z,61.00
2018-02-24T19:58:09.394Z,61.00
2018-02-24T20:00:35.632Z,61.00
2018-02-24T20:03:02.697Z,60.70
2018-02-24T20:05:29.714Z,60.70
2018-02-24T20:07:56.036Z,60.60
2018-02-24T20:10:22.336Z,60.60
2018-02-24T20:12:49.328Z,61.50
2018-02-24T20:15:15.625Z,61.50
2018-02-24T20:17:42.629Z,61.40
2018-02-24T20:20:09.008Z,61.30
2018-02-24T20:22:35.296Z,61.10
2018-02-24T20:25:02.719Z,61.20
2018-02-24T20:27:29.235Z,61.40
2018-02-24T20:29:55.549Z,61.60
2018-02-24T20:32:22.664Z,61.50
2018-02-24T20:34:49.033Z,61.50
2018-02-24T20:37:22.957Z,62.00
2018-02-24T20:39:49.961Z,62.00
2018-02-24T20:42:16.245Z,62.00
2018-02-24T20:44:43.265Z,61.40
2018-02-24T20:47:10.441Z,61.90
2018-02-24T20:49:37.620Z,61.90
2018-02-24T20:52:03.988Z,61.90
2018-02-24T20:54:31.041Z,62.80
2018-02-24T20:56:58.068Z,62.40
2018-02-24T20:59:24.413Z,62.20
2018-02-24T21:01:50.699Z,62.20
2018-02-24T21:04:17.034Z,62.00
2018-02-24T21:06:44.134Z,61.80
2018-02-24T21:09:10.491Z,61.80
2018-02-24T21:11:36.753Z,61.40
2018-02-24T21:14:03.081Z,61.50
2018-02-24T21:16:29.364Z,61.30
2018-02-24T21:18:56.392Z,60.80
2018-02-24T21:21:22.652Z,60.70
2018-02-24T21:23:48.900Z,60.90
2018-02-24T21:26:15.936Z,60.70
2018-02-24T21:28:42.204Z,60.70
2018-02-24T21:31:09.246Z,60.60
2018-02-24T21:33:35.507Z,60.50
2018-02-24T21:36:01.845Z,60.50
2018-02-24T21:38:28.870Z,60.90
2018-02-24T21:40:55.114Z,61.00
2018-02-24T21:43:22.122Z,61.30
2018-02-24T21:45:48.362Z,61.30
2018-02-24T21:48:14.631Z,61.30
2018-02-24T21:50:40.871Z,61.70
2018-02-24T21:53:07.096Z,62.30
2018-02-24T21:55:33.337Z,61.80
2018-02-24T21:57:59.544Z,61.90
2018-02-24T22:00:25.790Z,62.10
2018-02-24T22:02:52.807Z,62.60
2018-02-24T22:05:19.062Z,62.50
2018-02-24T22:07:45.898Z,62.70
2018-02-24T22:10:12.306Z,62.90
2018-02-24T22:12:38.598Z,63.00
2018-02-24T22:15:04.834Z,63.20
2018-02-24T22:17:31.079Z,63.40
2018-02-24T22:19:57.355Z,63.70
2018-02-24T22:22:24.360Z,63.90
2018-02-24T22:24:50.650Z,64.60
2018-02-24T22:27:17.643Z,64.00
2018-02-24T22:29:45.661Z,64.00
2018-02-24T22:32:12.076Z,63.80
2018-02-24T22:34:38.609Z,63.70
2018-02-24T22:37:04.883Z,63.70
2018-02-24T22:39:31.119Z,63.50
2018-02-24T22:41:57.377Z,63.50
2018-02-24T22:44:23.647Z,63.40
2018-02-24T22:46:51.123Z,63.40
2018-02-24T22:49:17.748Z,63.40
2018-02-24T22:51:43.967Z,63.30
2018-02-24T22:54:10.213Z,63.40
2018-02-24T22:56:36.445Z,63.30
2018-02-24T22:59:02.693Z,63.30
2018-02-24T23:01:28.913Z,63.40
2018-02-24T23:03:55.156Z,63.00
2018-02-24T23:06:21.451Z,62.90
2018-02-24T23:08:48.422Z,63.20
2018-02-24T23:11:15.406Z,63.30
2018-02-24T23:13:41.669Z,63.30
2018-02-24T23:16:07.908Z,63.40
2018-02-24T23:18:34.128Z,63.50
2018-02-24T23:21:00.343Z,63.50
2018-02-24T23:23:27.391Z,63.50
2018-02-24T23:25:57.727Z,63.80
2018-02-24T23:28:24.730Z,64.00
2018-02-24T23:30:50.975Z,64.00
2018-02-24T23:33:17.214Z,64.00
2018-02-24T23:35:43.463Z,64.30
2018-02-24T23:38:09.689Z,64.60
2018-02-24T23:40:35.960Z,64.60
2018-02-24T23:43:02.164Z,64.70
2018-02-24T23:45:30.512Z,64.70
2018-02-24T23:47:57.501Z,64.80
2018-02-24T23:50:23.759Z,64.80
2018-02-24T23:52:50.446Z,64.80
2018-02-24T23:55:16.776Z,65.00
2018-02-24T23:57:43.042Z,65.20
